New Harbor, ME (Heathkit)

43° 52' 34"N, 69° 29' 40"W, Elevation 65 ft.
Eastern Time

Hourly observations for the last 72 hours

Date Time Temperature (°F) Humi-
dity

(%)
Wind
(mph)
Pressure Rain (in)
Air Dew 6 Hour 1 Hr 3 Hr 6 Hr Day
Alt
(in)
Sea
Level

(mb)
Max Min
21 17:00 35 33 94 S 0 G 1 29.95 1014.3 0.01
21 16:00 41 37 84 S 1 G 4 29.94 1013.9 0.01 0.01 0.01
21 15:00 44 38 79 SSW 5 G 11 29.92 1013.2 0.00
21 14:00 45 38 77 SSW 6 G 11 29.92 1013.2 0.00
21 13:00 45 38 45 29 77 S 6 G 17 29.92 1013.2 0.00
21 12:00 44 38 80 SSE 7 G 19 29.94 1013.9 0.00
21 11:00 43 37 80 S 6 G 15 29.95 1014.3 0.00
21 10:00 39 35 85 SSE 6 G 10 29.98 1015.3 0.00
21 09:00 36 33 90 SSE 3 G 9 29.98 1015.3 0.00
21 08:00 33 31 94 SSE 3 G 10 29.99 1015.6 0.00
21 07:00 31 29 34 27 93 SE 1 G 7 29.99 1015.6 0.00
21 06:00 32 29 90 S 4 G 11 29.97 1014.9 0.00
21 05:00 33 31 93 S 4 G 10 29.94 1013.9 0.00
21 04:00 33 32 98 SSW 6 G 10 29.92 1013.2 0.00
21 03:00 33 33 99 S 3 G 6 29.91 1012.9 0.00
21 02:00 33 33 99 SE 1 G 6 29.91 1012.9 0.00
21 01:00 34 34 36 29 99 SSW 4 G 7 29.90 1012.6 0.04 0.00
21 00:00 34 34 99 SW 2 G 4 29.89 1012.2 0.09
20 23:00 33 33 99 SE 3 G 9 29.88 1011.9 0.09
20 22:00 34 34 99 SE 6 G 12 29.86 1011.2 0.01 0.04 0.09
20 21:00 34 34 99 SE 4 G 7 29.85 1010.9 0.02 0.08
20 20:00 35 35 99 SE 4 G 10 29.85 1010.9 0.01 0.06
20 19:00 36 36 37 31 99 SSE 4 G 9 29.83 1010.2 0.01 0.05 0.05 0.05
20 18:00 36 36 99 S 2 G 6 29.82 1009.9 0.02 0.04
20 17:00 36 36 99 SSE 6 G 10 29.81 1009.5 0.02 0.02
20 16:00 37 37 99 S 4 G 14 29.79 1008.8 0.00
20 15:00 37 37 99 SSE 4 G 9 29.79 1008.8 0.00
20 14:00 37 36 98 SE 3 G 9 29.78 1008.5 0.00
20 13:00 37 36 38 31 98 SSE 5 G 12 29.78 1008.5 0.00
20 12:00 37 36 98 SSE 5 G 12 29.78 1008.5 0.00
20 11:00 37 37 99 SSE 2 G 8 29.78 1008.5 0.00
20 10:00 36 36 99 ESE 6 G 10 29.79 1008.8 0.00
20 09:00 34 34 99 ESE 5 G 14 29.79 1008.8 0.00
20 08:00 34 34 99 ESE 4 G 9 29.79 1008.8 0.00
20 07:00 34 34 34 29 99 SE 4 G 12 29.80 1009.2 0.00
20 06:00 34 34 99 SSE 2 G 7 29.80 1009.2 0.00
20 05:00 34 34 99 ESE 8 G 13 29.79 1008.8 0.00
20 04:00 34 34 99 SE 4 G 10 29.76 1007.8 0.00
20 03:00 34 34 99 SE 4 G 11 29.76 1007.8 0.00
20 02:00 33 33 99 ESE 4 G 6 29.77 1008.2 0.00
20 01:00 34 34 37 31 99 ESE 4 G 9 29.76 1007.8 0.00
20 00:00 34 34 99 SE 6 G 10 29.76 1007.8 0.06
19 23:00 34 34 99 S 1 G 4 29.78 1008.5 0.06
19 22:00 34 34 99 E 1 G 2 29.77 1008.2 0.06
19 21:00 36 36 99 SSW 5 G 9 29.76 1007.8 0.06
19 20:00 36 36 99 SSW 2 G 5 29.77 1008.2 0.06
19 19:00 37 37 39 34 99 SW 1 G 3 29.76 1007.8 0.03 0.06
19 18:00 37 37 99 S 0 G 2 29.75 1007.5 0.06
19 17:00 37 37 99 SW 1 G 2 29.72 1006.5 0.06
19 16:00 38 38 99 SE 2 G 4 29.69 1005.5 0.03 0.06
19 15:00 39 39 99 S 2 G 3 29.66 1004.4 0.01 0.06
19 14:00 38 38 99 S 2 G 4 29.66 1004.4 0.02 0.05
19 13:00 38 38 39 32 99 S 1 G 4 29.64 1003.8 0.02 0.03 0.03 0.03
19 12:00 38 38 99 S 3 G 7 29.62 1003.1 0.01 0.01
19 11:00 38 38 99 SSW 3 G 7 29.62 1003.1 0.00
19 10:00 37 37 99 SSW 3 G 5 29.64 1003.8 0.00
19 09:00 37 37 99 S 2 G 4 29.64 1003.8 0.00
19 08:00 35 35 99 SSE 2 G 3 29.65 1004.1 0.00
19 07:00 34 34 35 29 99 SSW 2 G 3 29.63 1003.4 0.00
19 06:00 34 34 99 S 2 G 4 29.62 1003.1 0.00
19 05:00 35 35 99 S 2 G 4 29.59 1002.1 0.00
19 04:00 35 35 99 SSE 2 G 8 29.57 1001.4 0.00
19 03:00 34 34 99 SSE 3 G 12 29.55 1000.7 0.00
19 02:00 34 34 99 SSE 5 G 11 29.53 1000.0 0.00
19 01:00 34 34 35 29 99 S 4 G 12 29.52 999.7 0.01 0.05 0.00
19 00:00 34 34 99 S 6 G 12 29.52 999.7 0.42
18 23:00 34 34 99 SSW 6 G 12 29.54 1000.4 0.01 0.42
18 22:00 34 34 99 SE 6 G 14 29.54 1000.4 0.04 0.41
18 21:00 35 35 99 S 6 G 14 29.53 1000.0 0.01 0.41
18 20:00 35 35 99 SSE 6 G 14 29.56 1001.0 0.03 0.40
18 19:00 35 35 35 30 99 SE 7 G 13 29.58 1001.7 0.04 0.13 0.36 0.37
18 18:00 35 35 99 SSE 8 G 20 29.59 1002.1 0.05 0.33

Data generated by WxSolution Version 1.9.1.5, Build 2018.05.20.